sensor_id;sensor_type;location;lat;lon;timestamp;pressure;altitude;pressure_sealevel;temperature;humidity
20889;BME280;10604;51.976;7.594;2023-02-02T00:00:35;101126.88;;;6.79;88.17
20889;BME280;10604;51.976;7.594;2023-02-02T00:03:00;101126.81;;;6.85;87.79
20889;BME280;10604;51.976;7.594;2023-02-02T00:05:27;101132.97;;;6.83;88.00
20889;BME280;10604;51.976;7.594;2023-02-02T00:07:52;101128.59;;;6.83;87.79
20889;BME280;10604;51.976;7.594;2023-02-02T00:10:18;101128.75;;;6.65;88.16
20889;BME280;10604;51.976;7.594;2023-02-02T00:12:43;101130.44;;;6.71;88.52
20889;BME280;10604;51.976;7.594;2023-02-02T00:15:09;101130.56;;;6.55;88.33
20889;BME280;10604;51.976;7.594;2023-02-02T00:17:34;101135.75;;;6.63;88.28
20889;BME280;10604;51.976;7.594;2023-02-02T00:19:59;101131.38;;;6.66;88.14
20889;BME280;10604;51.976;7.594;2023-02-02T00:22:25;101126.13;;;6.63;87.72
20889;BME280;10604;51.976;7.594;2023-02-02T00:24:50;101126.94;;;6.70;87.30
20889;BME280;10604;51.976;7.594;2023-02-02T00:27:15;101140.03;;;6.75;86.67
20889;BME280;10604;51.976;7.594;2023-02-02T00:29:41;101129.63;;;6.65;86.64
20889;BME280;10604;51.976;7.594;2023-02-02T00:32:06;101134.09;;;6.47;86.74
20889;BME280;10604;51.976;7.594;2023-02-02T00:34:32;101127.06;;;6.59;86.53
20889;BME280;10604;51.976;7.594;2023-02-02T00:36:57;101129.72;;;6.53;86.60
20889;BME280;10604;51.976;7.594;2023-02-02T00:39:23;101134.88;;;6.65;85.74
20889;BME280;10604;51.976;7.594;2023-02-02T00:41:50;101136.66;;;6.60;85.31
20889;BME280;10604;51.976;7.594;2023-02-02T00:44:16;101132.19;;;6.72;85.39
20889;BME280;10604;51.976;7.594;2023-02-02T00:47:00;101134.81;;;6.75;84.37
20889;BME280;10604;51.976;7.594;2023-02-02T00:49:25;101133.94;;;6.69;84.48
20889;BME280;10604;51.976;7.594;2023-02-02T00:51:51;101134.00;;;6.62;84.24
20889;BME280;10604;51.976;7.594;2023-02-02T00:54:16;101147.00;;;6.77;83.44
20889;BME280;10604;51.976;7.594;2023-02-02T00:56:42;101138.34;;;6.67;83.96
20889;BME280;10604;51.976;7.594;2023-02-02T00:59:08;101137.47;;;6.65;84.07
20889;BME280;10604;51.976;7.594;2023-02-02T01:01:33;101136.59;;;6.66;83.89
20889;BME280;10604;51.976;7.594;2023-02-02T01:03:59;101140.97;;;6.67;83.56
20889;BME280;10604;51.976;7.594;2023-02-02T01:06:24;101139.19;;;6.69;84.08
20889;BME280;10604;51.976;7.594;2023-02-02T01:08:50;101152.34;;;6.66;84.28
20889;BME280;10604;51.976;7.594;2023-02-02T01:11:16;101152.38;;;6.57;84.06
20889;BME280;10604;51.976;7.594;2023-02-02T01:13:41;101153.31;;;6.53;84.58
20889;BME280;10604;51.976;7.594;2023-02-02T01:16:08;101156.75;;;6.58;84.91
20889;BME280;10604;51.976;7.594;2023-02-02T01:18:33;101159.22;;;6.80;84.13
20889;BME280;10604;51.976;7.594;2023-02-02T01:21:07;101159.28;;;6.71;84.93
20889;BME280;10604;51.976;7.594;2023-02-02T01:23:34;101154.09;;;6.64;85.09
20889;BME280;10604;51.976;7.594;2023-02-02T01:26:02;101155.88;;;6.59;85.35
20889;BME280;10604;51.976;7.594;2023-02-02T01:28:29;101155.94;;;6.53;85.84
20889;BME280;10604;51.976;7.594;2023-02-02T01:30:55;101164.56;;;6.61;85.78
20889;BME280;10604;51.976;7.594;2023-02-02T01:33:20;101162.72;;;6.76;85.66
20889;BME280;10604;51.976;7.594;2023-02-02T01:35:48;101167.97;;;6.79;85.96
20889;BME280;10604;51.976;7.594;2023-02-02T01:38:14;101170.50;;;6.88;85.59
20889;BME280;10604;51.976;7.594;2023-02-02T01:40:56;101179.19;;;6.93;85.43
20889;BME280;10604;51.976;7.594;2023-02-02T01:43:28;101173.19;;;6.82;86.05
20889;BME280;10604;51.976;7.594;2023-02-02T01:45:55;101174.06;;;6.79;85.97
20889;BME280;10604;51.976;7.594;2023-02-02T01:48:28;101179.38;;;6.70;86.15
20889;BME280;10604;51.976;7.594;2023-02-02T01:50:57;101179.56;;;6.44;87.17
20889;BME280;10604;51.976;7.594;2023-02-02T01:53:24;101171.56;;;6.65;87.40
20889;BME280;10604;51.976;7.594;2023-02-02T01:55:51;101183.78;;;6.63;87.66
20889;BME280;10604;51.976;7.594;2023-02-02T01:58:22;101189.13;;;6.48;88.29
20889;BME280;10604;51.976;7.594;2023-02-02T02:00:49;101189.91;;;6.64;88.82
20889;BME280;10604;51.976;7.594;2023-02-02T02:03:18;101189.91;;;6.61;89.10
20889;BME280;10604;51.976;7.594;2023-02-02T02:05:52;101190.78;;;6.66;89.64
20889;BME280;10604;51.976;7.594;2023-02-02T02:08:25;101193.31;;;6.77;90.32
20889;BME280;10604;51.976;7.594;2023-02-02T02:10:51;101194.09;;;6.88;90.32
20889;BME280;10604;51.976;7.594;2023-02-02T02:13:18;101199.34;;;6.85;90.26
20889;BME280;10604;51.976;7.594;2023-02-02T02:15:56;101187.13;;;6.84;90.67
20889;BME280;10604;51.976;7.594;2023-02-02T02:18:56;101189.75;;;6.87;91.00
20889;BME280;10604;51.976;7.594;2023-02-02T02:24:55;101185.31;;;6.95;90.90
20889;BME280;10604;51.976;7.594;2023-02-02T02:28:12;101191.38;;;6.97;90.72
20889;BME280;10604;51.976;7.594;2023-02-02T02:33:33;101195.69;;;7.10;91.04
20889;BME280;10604;51.976;7.594;2023-02-02T02:36:11;101195.69;;;7.05;91.31
20889;BME280;10604;51.976;7.594;2023-02-02T02:41:27;101201.03;;;6.95;91.60
20889;BME280;10604;51.976;7.594;2023-02-02T02:43:59;101207.88;;;7.11;91.83
20889;BME280;10604;51.976;7.594;2023-02-02T02:46:26;101199.19;;;7.09;91.48
20889;BME280;10604;51.976;7.594;2023-02-02T02:48:52;101209.63;;;7.15;91.45
20889;BME280;10604;51.976;7.594;2023-02-02T02:51:46;101195.69;;;7.04;91.72
20889;BME280;10604;51.976;7.594;2023-02-02T02:54:16;101192.19;;;7.05;91.83
20889;BME280;10604;51.976;7.594;2023-02-02T03:07:24;101196.69;;;6.95;92.87
20889;BME280;10604;51.976;7.594;2023-02-02T03:09:51;101202.78;;;6.96;92.46
20889;BME280;10604;51.976;7.594;2023-02-02T03:12:19;101196.69;;;6.95;92.98
20889;BME280;10604;51.976;7.594;2023-02-02T03:14:45;101197.50;;;7.02;92.73
20889;BME280;10604;51.976;7.594;2023-02-02T03:17:10;101197.38;;;7.17;92.58
20889;BME280;10604;51.976;7.594;2023-02-02T03:19:35;101197.31;;;7.23;92.83
20889;BME280;10604;51.976;7.594;2023-02-02T03:22:01;101192.00;;;7.28;92.65
20889;BME280;10604;51.976;7.594;2023-02-02T03:24:27;101193.69;;;7.33;92.39
20889;BME280;10604;51.976;7.594;2023-02-02T03:26:52;101196.44;;;7.23;92.49
20889;BME280;10604;51.976;7.594;2023-02-02T03:29:18;101180.56;;;7.36;93.01
20889;BME280;10604;51.976;7.594;2023-02-02T03:31:45;101179.75;;;7.31;92.76
20889;BME280;10604;51.976;7.594;2023-02-02T03:34:10;101173.66;;;7.28;92.84
20889;BME280;10604;51.976;7.594;2023-02-02T03:36:36;101187.69;;;7.24;93.04
20889;BME280;10604;51.976;7.594;2023-02-02T03:39:01;101182.47;;;7.19;93.95
20889;BME280;10604;51.976;7.594;2023-02-02T03:41:26;101178.22;;;7.06;94.21
20889;BME280;10604;51.976;7.594;2023-02-02T03:43:52;101182.53;;;7.12;94.89
20889;BME280;10604;51.976;7.594;2023-02-02T03:46:17;101186.81;;;7.23;94.32
20889;BME280;10604;51.976;7.594;2023-02-02T03:48:42;101192.00;;;7.29;93.93
20889;BME280;10604;51.976;7.594;2023-02-02T03:51:12;101190.06;;;7.46;93.39
20889;BME280;10604;51.976;7.594;2023-02-02T03:53:41;101193.41;;;7.64;92.72
20889;BME280;10604;51.976;7.594;2023-02-02T03:56:12;101189.16;;;7.52;92.66
20889;BME280;10604;51.976;7.594;2023-02-02T03:58:37;101198.72;;;7.58;93.09
20889;BME280;10604;51.976;7.594;2023-02-02T04:01:05;101196.91;;;7.63;93.28
20889;BME280;10604;51.976;7.594;2023-02-02T04:03:31;101196.91;;;7.63;92.99
20889;BME280;10604;51.976;7.594;2023-02-02T04:05:57;101189.81;;;7.72;92.93
20889;BME280;10604;51.976;7.594;2023-02-02T04:08:22;101189.03;;;7.63;92.88
20889;BME280;10604;51.976;7.594;2023-02-02T04:10:47;101189.97;;;7.56;93.88
20889;BME280;10604;51.976;7.594;2023-02-02T04:13:13;101190.84;;;7.59;94.18
20889;BME280;10604;51.976;7.594;2023-02-02T04:15:39;101198.66;;;7.64;94.96
20889;BME280;10604;51.976;7.594;2023-02-02T04:18:05;101191.59;;;7.69;94.85
20889;BME280;10604;51.976;7.594;2023-02-02T04:20:30;101196.84;;;7.69;95.02
20889;BME280;10604;51.976;7.594;2023-02-02T04:22:55;101189.78;;;7.74;95.07
20889;BME280;10604;51.976;7.594;2023-02-02T04:25:21;101198.63;;;7.67;95.99
20889;BME280;10604;51.976;7.594;2023-02-02T04:27:46;101205.56;;;7.71;96.23
20889;BME280;10604;51.976;7.594;2023-02-02T04:30:11;101203.88;;;7.67;96.30
20889;BME280;10604;51.976;7.594;2023-02-02T04:32:37;101204.78;;;7.61;96.77
20889;BME280;10604;51.976;7.594;2023-02-02T04:35:02;101212.81;;;7.47;97.17
20889;BME280;10604;51.976;7.594;2023-02-02T04:37:30;101212.88;;;7.41;97.59
20889;BME280;10604;51.976;7.594;2023-02-02T04:39:56;101204.81;;;7.60;97.89
20889;BME280;10604;51.976;7.594;2023-02-02T04:42:21;101201.41;;;7.52;97.75
20889;BME280;10604;51.976;7.594;2023-02-02T04:44:47;101195.22;;;7.56;97.77
20889;BME280;10604;51.976;7.594;2023-02-02T04:47:12;101199.56;;;7.60;97.66
20889;BME280;10604;51.976;7.594;2023-02-02T04:49:37;101203.09;;;7.57;97.33
20889;BME280;10604;51.976;7.594;2023-02-02T04:52:03;101200.47;;;7.56;96.89
20889;BME280;10604;51.976;7.594;2023-02-02T04:54:29;101202.25;;;7.54;97.55
20889;BME280;10604;51.976;7.594;2023-02-02T04:56:54;101204.03;;;7.52;96.91
20889;BME280;10604;51.976;7.594;2023-02-02T04:59:19;101198.81;;;7.48;97.46
20889;BME280;10604;51.976;7.594;2023-02-02T05:01:45;101192.53;;;7.60;97.35
20889;BME280;10604;51.976;7.594;2023-02-02T05:04:10;101195.09;;;7.68;96.82
20889;BME280;10604;51.976;7.594;2023-02-02T05:06:36;101196.25;;;7.41;97.27
20889;BME280;10604;51.976;7.594;2023-02-02T05:09:01;101199.75;;;7.41;97.41
20889;BME280;10604;51.976;7.594;2023-02-02T05:11:27;101189.25;;;7.40;97.79
20889;BME280;10604;51.976;7.594;2023-02-02T05:13:53;101188.50;;;7.27;97.49
20889;BME280;10604;51.976;7.594;2023-02-02T05:16:20;101209.44;;;7.32;98.04
20889;BME280;10604;51.976;7.594;2023-02-02T05:18:49;101206.81;;;7.35;98.41
20889;BME280;10604;51.976;7.594;2023-02-02T05:21:15;101205.00;;;7.41;98.73
20889;BME280;10604;51.976;7.594;2023-02-02T05:23:40;101216.50;;;7.28;98.90
20889;BME280;10604;51.976;7.594;2023-02-02T05:26:06;101205.97;;;7.31;99.21
20889;BME280;10604;51.976;7.594;2023-02-02T05:28:31;101205.91;;;7.37;99.01
20889;BME280;10604;51.976;7.594;2023-02-02T05:31:03;101194.56;;;7.37;99.18
20889;BME280;10604;51.976;7.594;2023-02-02T05:33:29;101199.00;;;7.27;99.49
20889;BME280;10604;51.976;7.594;2023-02-02T05:35:54;101204.31;;;7.21;100.00
20889;BME280;10604;51.976;7.594;2023-02-02T05:38:19;101199.00;;;7.30;100.00
20889;BME280;10604;51.976;7.594;2023-02-02T05:40:47;101214.63;;;7.39;99.60
20889;BME280;10604;51.976;7.594;2023-02-02T05:43:13;101204.97;;;7.43;100.00
20889;BME280;10604;51.976;7.594;2023-02-02T05:45:38;101214.66;;;7.36;99.80
20889;BME280;10604;51.976;7.594;2023-02-02T05:48:04;101211.31;;;7.19;100.00
20889;BME280;10604;51.976;7.594;2023-02-02T05:50:29;101219.19;;;7.21;100.00
20889;BME280;10604;51.976;7.594;2023-02-02T05:52:54;101217.38;;;7.29;100.00
20889;BME280;10604;51.976;7.594;2023-02-02T05:55:20;101215.66;;;7.23;100.00
20889;BME280;10604;51.976;7.594;2023-02-02T05:57:45;101216.41;;;7.37;100.00
20889;BME280;10604;51.976;7.594;2023-02-02T06:00:11;101226.94;;;7.34;100.00
20889;BME280;10604;51.976;7.594;2023-02-02T06:02:36;101226.97;;;7.28;100.00
20889;BME280;10604;51.976;7.594;2023-02-02T06:05:01;101219.16;;;7.24;100.00
20889;BME280;10604;51.976;7.594;2023-02-02T06:07:27;101223.47;;;7.29;100.00
20889;BME280;10604;51.976;7.594;2023-02-02T06:09:52;101228.59;;;7.41;100.00
20889;BME280;10604;51.976;7.594;2023-02-02T06:12:18;101228.75;;;7.26;100.00
20889;BME280;10604;51.976;7.594;2023-02-02T06:14:44;101221.69;;;7.34;100.00
20889;BME280;10604;51.976;7.594;2023-02-02T06:17:09;101217.38;;;7.27;100.00
20889;BME280;10604;51.976;7.594;2023-02-02T06:19:35;101224.41;;;7.24;100.00
20889;BME280;10604;51.976;7.594;2023-02-02T06:22:00;101219.84;;;7.45;100.00
20889;BME280;10604;51.976;7.594;2023-02-02T06:24:25;101221.75;;;7.28;100.00
20889;BME280;10604;51.976;7.594;2023-02-02T06:26:51;101224.44;;;7.21;100.00
20889;BME280;10604;51.976;7.594;2023-02-02T06:29:16;101220.88;;;7.26;100.00
20889;BME280;10604;51.976;7.594;2023-02-02T06:31:42;101221.78;;;7.22;100.00
20889;BME280;10604;51.976;7.594;2023-02-02T06:34:09;101221.72;;;7.31;100.00
20889;BME280;10604;51.976;7.594;2023-02-02T06:36:37;101226.94;;;7.34;100.00
20889;BME280;10604;51.976;7.594;2023-02-02T06:39:03;101232.25;;;7.27;100.00
20889;BME280;10604;51.976;7.594;2023-02-02T06:41:29;101236.56;;;7.32;100.00
20889;BME280;10604;51.976;7.594;2023-02-02T06:43:55;101233.16;;;7.24;100.00
20889;BME280;10604;51.976;7.594;2023-02-02T06:46:21;101242.59;;;7.43;100.00
20889;BME280;10604;51.976;7.594;2023-02-02T06:48:46;101239.03;;;7.47;100.00
20889;BME280;10604;51.976;7.594;2023-02-02T06:51:12;101240.91;;;7.33;100.00
20889;BME280;10604;51.976;7.594;2023-02-02T06:53:37;101237.47;;;7.28;100.00
20889;BME280;10604;51.976;7.594;2023-02-02T06:56:05;101233.94;;;7.32;100.00
20889;BME280;10604;51.976;7.594;2023-02-02T06:58:32;101233.91;;;7.35;100.00
20889;BME280;10604;51.976;7.594;2023-02-02T07:01:02;101239.03;;;7.47;100.00
20889;BME280;10604;51.976;7.594;2023-02-02T07:03:28;101233.91;;;7.38;100.00
20889;BME280;10604;51.976;7.594;2023-02-02T07:05:54;101236.53;;;7.34;100.00
20889;BME280;10604;51.976;7.594;2023-02-02T07:08:19;101230.47;;;7.30;100.00
20889;BME280;10604;51.976;7.594;2023-02-02T07:10:45;101232.22;;;7.28;100.00
20889;BME280;10604;51.976;7.594;2023-02-02T07:13:11;101235.72;;;7.27;100.00
20889;BME280;10604;51.976;7.594;2023-02-02T07:15:40;101241.78;;;7.38;100.00
20889;BME280;10604;51.976;7.594;2023-02-02T07:18:05;101244.28;;;7.47;100.00
20889;BME280;10604;51.976;7.594;2023-02-02T07:20:31;101237.34;;;7.43;100.00
20889;BME280;10604;51.976;7.594;2023-02-02T07:22:56;101249.59;;;7.44;100.00
20889;BME280;10604;51.976;7.594;2023-02-02T07:25:22;101235.25;;;7.79;100.00
20889;BME280;10604;51.976;7.594;2023-02-02T07:27:53;101241.38;;;7.78;100.00
20889;BME280;10604;51.976;7.594;2023-02-02T07:30:18;101259.91;;;7.63;100.00
20889;BME280;10604;51.976;7.594;2023-02-02T07:32:48;101272.25;;;7.52;100.00
20889;BME280;10604;51.976;7.594;2023-02-02T07:35:15;101267.03;;;7.50;100.00
20889;BME280;10604;51.976;7.594;2023-02-02T07:37:40;101265.34;;;7.44;100.00
20889;BME280;10604;51.976;7.594;2023-02-02T07:40:07;101284.50;;;7.53;100.00
20889;BME280;10604;51.976;7.594;2023-02-02T07:42:32;101274.97;;;7.39;99.49
20889;BME280;10604;51.976;7.594;2023-02-02T07:44:58;101288.19;;;7.30;99.41
20889;BME280;10604;51.976;7.594;2023-02-02T07:47:24;101285.50;;;7.36;99.69
20889;BME280;10604;51.976;7.594;2023-02-02T07:49:49;101299.63;;;7.23;98.99
20889;BME280;10604;51.976;7.594;2023-02-02T07:52:15;101286.56;;;7.13;99.00
20889;BME280;10604;51.976;7.594;2023-02-02T07:54:45;101297.97;;;7.08;99.21
20889;BME280;10604;51.976;7.594;2023-02-02T07:57:10;101297.09;;;7.08;98.97
20889;BME280;10604;51.976;7.594;2023-02-02T07:59:37;101311.97;;;7.06;98.93
20889;BME280;10604;51.976;7.594;2023-02-02T08:02:02;101314.66;;;6.94;99.22
20889;BME280;10604;51.976;7.594;2023-02-02T08:04:28;101326.94;;;6.89;99.03
20889;BME280;10604;51.976;7.594;2023-02-02T08:06:53;101317.25;;;7.00;99.27
20889;BME280;10604;51.976;7.594;2023-02-02T08:09:19;101318.06;;;7.08;98.54
20889;BME280;10604;51.976;7.594;2023-02-02T08:11:44;101319.88;;;6.97;98.11
20889;BME280;10604;51.976;7.594;2023-02-02T08:14:11;101327.78;;;6.91;98.32
20889;BME280;10604;51.976;7.594;2023-02-02T08:16:37;101330.44;;;6.85;98.49
20889;BME280;10604;51.976;7.594;2023-02-02T08:19:03;101338.25;;;6.91;98.24
20889;BME280;10604;51.976;7.594;2023-02-02T08:21:31;101335.59;;;6.97;97.89
20889;BME280;10604;51.976;7.594;2023-02-02T08:23:57;101342.56;;;7.04;97.47
20889;BME280;10604;51.976;7.594;2023-02-02T08:26:25;101339.13;;;6.96;97.57
20889;BME280;10604;51.976;7.594;2023-02-02T08:28:53;101339.19;;;6.88;98.19
20889;BME280;10604;51.976;7.594;2023-02-02T08:31:21;101340.06;;;6.86;98.11
20889;BME280;10604;51.976;7.594;2023-02-02T08:33:47;101346.19;;;6.82;98.43
20889;BME280;10604;51.976;7.594;2023-02-02T08:36:20;101349.66;;;6.84;98.74
20889;BME280;10604;51.976;7.594;2023-02-02T08:38:46;101354.91;;;6.87;98.16
20889;BME280;10604;51.976;7.594;2023-02-02T08:41:14;101347.03;;;6.85;98.44
20889;BME280;10604;51.976;7.594;2023-02-02T08:43:40;101358.38;;;6.92;98.71
20889;BME280;10604;51.976;7.594;2023-02-02T08:46:08;101367.91;;;7.06;97.89
20889;BME280;10604;51.976;7.594;2023-02-02T08:48:34;101368.78;;;7.07;97.52
20889;BME280;10604;51.976;7.594;2023-02-02T08:51:01;101367.00;;;7.12;97.49
20889;BME280;10604;51.976;7.594;2023-02-02T08:53:27;101367.06;;;7.00;97.43
20889;BME280;10604;51.976;7.594;2023-02-02T08:55:58;101383.69;;;7.00;97.74
20889;BME280;10604;51.976;7.594;2023-02-02T08:58:24;101381.09;;;6.90;98.03
20889;BME280;10604;51.976;7.594;2023-02-02T09:00:49;101386.34;;;6.90;98.77
20889;BME280;10604;51.976;7.594;2023-02-02T09:03:15;101382.81;;;7.00;97.99
20889;BME280;10604;51.976;7.594;2023-02-02T09:05:40;101392.41;;;6.98;97.59
20889;BME280;10604;51.976;7.594;2023-02-02T09:08:06;101402.06;;;6.96;96.98
20889;BME280;10604;51.976;7.594;2023-02-02T09:10:34;101402.06;;;6.90;97.47
20889;BME280;10604;51.976;7.594;2023-02-02T09:13:00;101393.34;;;6.88;97.66
20889;BME280;10604;51.976;7.594;2023-02-02T09:15:25;101407.34;;;6.87;98.16
20889;BME280;10604;51.976;7.594;2023-02-02T09:17:51;101409.13;;;6.82;97.83
20889;BME280;10604;51.976;7.594;2023-02-02T09:20:16;101412.63;;;6.78;98.30
20889;BME280;10604;51.976;7.594;2023-02-02T09:22:42;101419.50;;;6.98;97.92
20889;BME280;10604;51.976;7.594;2023-02-02T09:25:07;101416.06;;;6.92;97.49
20889;BME280;10604;51.976;7.594;2023-02-02T09:27:36;101421.25;;;6.98;97.47
20889;BME280;10604;51.976;7.594;2023-02-02T09:30:02;101423.03;;;6.96;97.72
20889;BME280;10604;51.976;7.594;2023-02-02T09:32:28;101429.16;;;6.95;97.69
20889;BME280;10604;51.976;7.594;2023-02-02T09:34:53;101425.63;;;6.99;97.57
20889;BME280;10604;51.976;7.594;2023-02-02T09:37:18;101429.97;;;7.09;97.81
20889;BME280;10604;51.976;7.594;2023-02-02T09:39:44;101433.47;;;7.08;96.56
20889;BME280;10604;51.976;7.594;2023-02-02T09:42:24;101440.47;;;7.09;96.13
20889;BME280;10604;51.976;7.594;2023-02-02T09:44:57;101455.34;;;7.01;96.75
20889;BME280;10604;51.976;7.594;2023-02-02T09:52:37;101461.34;;;7.27;95.71
20889;BME280;10604;51.976;7.594;2023-02-02T09:57:56;101463.19;;;7.10;96.34
20889;BME280;10604;51.976;7.594;2023-02-02T10:00:33;101465.75;;;7.19;96.68
20889;BME280;10604;51.976;7.594;2023-02-02T10:06:17;101477.19;;;7.09;96.05
20889;BME280;10604;51.976;7.594;2023-02-02T10:09:14;101477.19;;;7.06;96.14
20889;BME280;10604;51.976;7.594;2023-02-02T10:14:32;101478.94;;;7.04;96.60
20889;BME280;10604;51.976;7.594;2023-02-02T10:19:51;101480.72;;;7.02;97.10
20889;BME280;10604;51.976;7.594;2023-02-02T10:22:23;101492.88;;;7.24;96.99
20889;BME280;10604;51.976;7.594;2023-02-02T10:24:51;101489.34;;;7.28;96.45
20889;BME280;10604;51.976;7.594;2023-02-02T10:27:31;101495.50;;;7.23;96.39
20889;BME280;10604;51.976;7.594;2023-02-02T10:30:03;101495.47;;;7.26;96.84
20889;BME280;10604;51.976;7.594;2023-02-02T10:32:47;101497.09;;;7.50;95.96
20889;BME280;10604;51.976;7.594;2023-02-02T10:38:16;101503.25;;;7.45;95.45
20889;BME280;10604;51.976;7.594;2023-02-02T10:46:37;101499.75;;;7.43;95.48
20889;BME280;10604;51.976;7.594;2023-02-02T10:52:15;101502.38;;;7.43;94.87
20889;BME280;10604;51.976;7.594;2023-02-02T10:55:09;101501.50;;;7.41;95.33
20889;BME280;10604;51.976;7.594;2023-02-02T11:00:22;101515.47;;;7.46;95.51
20889;BME280;10604;51.976;7.594;2023-02-02T11:02:50;101511.97;;;7.51;96.15
20889;BME280;10604;51.976;7.594;2023-02-02T11:05:22;101508.41;;;7.61;95.62
20889;BME280;10604;51.976;7.594;2023-02-02T11:08:14;101507.53;;;7.65;94.68
20889;BME280;10604;51.976;7.594;2023-02-02T11:10:42;101518.94;;;7.55;93.98
20889;BME280;10604;51.976;7.594;2023-02-02T11:13:13;101519.00;;;7.42;95.23
20889;BME280;10604;51.976;7.594;2023-02-02T11:15:39;101519.03;;;7.33;95.02
20889;BME280;10604;51.976;7.594;2023-02-02T11:18:13;101515.59;;;7.24;95.71
20889;BME280;10604;51.976;7.594;2023-02-02T11:20:40;101519.06;;;7.30;96.70
20889;BME280;10604;51.976;7.594;2023-02-02T11:23:05;101506.72;;;7.47;96.37
20889;BME280;10604;51.976;7.594;2023-02-02T11:25:38;101515.47;;;7.46;95.69
20889;BME280;10604;51.976;7.594;2023-02-02T11:28:20;101520.66;;;7.65;94.62
20889;BME280;10604;51.976;7.594;2023-02-02T11:30:50;101512.81;;;7.56;94.53
20889;BME280;10604;51.976;7.594;2023-02-02T11:33:32;101517.16;;;7.66;93.82
20889;BME280;10604;51.976;7.594;2023-02-02T11:38:26;101515.50;;;7.40;94.38
20889;BME280;10604;51.976;7.594;2023-02-02T11:41:06;101519.88;;;7.43;94.79
20889;BME280;10604;51.976;7.594;2023-02-02T11:43:39;101515.41;;;7.66;95.33
20889;BME280;10604;51.976;7.594;2023-02-02T11:46:22;101527.63;;;7.72;94.76
20889;BME280;10604;51.976;7.594;2023-02-02T11:48:57;101518.94;;;7.55;94.43
20889;BME280;10604;51.976;7.594;2023-02-02T11:51:25;101514.59;;;7.49;95.35
20889;BME280;10604;51.976;7.594;2023-02-02T11:54:02;101519.88;;;7.43;95.85
20889;BME280;10604;51.976;7.594;2023-02-02T11:56:28;101518.97;;;7.48;96.63
20889;BME280;10604;51.976;7.594;2023-02-02T11:58:55;101518.13;;;7.40;96.28
20889;BME280;10604;51.976;7.594;2023-02-02T12:03:52;101529.50;;;7.39;96.90
20889;BME280;10604;51.976;7.594;2023-02-02T12:06:23;101526.03;;;7.37;96.08
20889;BME280;10604;51.976;7.594;2023-02-02T12:08:53;101519.03;;;7.33;95.69
20889;BME280;10604;51.976;7.594;2023-02-02T12:17:32;101528.66;;;7.37;96.23
20889;BME280;10604;51.976;7.594;2023-02-02T12:20:33;101530.41;;;7.35;96.91
20889;BME280;10604;51.976;7.594;2023-02-02T12:31:46;101529.50;;;7.42;97.29
20889;BME280;10604;51.976;7.594;2023-02-02T12:34:35;101519.00;;;7.39;97.43
20889;BME280;10604;51.976;7.594;2023-02-02T12:51:16;101517.31;;;7.26;97.99
20889;BME280;10604;51.976;7.594;2023-02-02T12:59:49;101512.06;;;7.29;98.13
20889;BME280;10604;51.976;7.594;2023-02-02T13:05:38;101505.06;;;7.31;98.24
20889;BME280;10604;51.976;7.594;2023-02-02T13:08:11;101515.53;;;7.37;98.25
20889;BME280;10604;51.976;7.594;2023-02-02T13:10:45;101516.41;;;7.38;97.99
20889;BME280;10604;51.976;7.594;2023-02-02T13:13:15;101518.09;;;7.46;97.76
20889;BME280;10604;51.976;7.594;2023-02-02T13:15:46;101512.03;;;7.32;97.57
20889;BME280;10604;51.976;7.594;2023-02-02T13:18:17;101526.03;;;7.36;97.13
20889;BME280;10604;51.976;7.594;2023-02-02T13:20:52;101524.31;;;7.30;97.12
20889;BME280;10604;51.976;7.594;2023-02-02T13:23:23;101527.78;;;7.38;97.77
20889;BME280;10604;51.976;7.594;2023-02-02T13:26:06;101520.78;;;7.34;97.86
20889;BME280;10604;51.976;7.594;2023-02-02T13:31:34;101528.66;;;7.34;98.31
20889;BME280;10604;51.976;7.594;2023-02-02T13:36:59;101533.06;;;7.26;98.01
20889;BME280;10604;51.976;7.594;2023-02-02T13:39:40;101528.69;;;7.28;97.63
20889;BME280;10604;51.976;7.594;2023-02-02T13:42:17;101527.88;;;7.17;98.40
20889;BME280;10604;51.976;7.594;2023-02-02T13:44:54;101531.34;;;7.19;98.44
20889;BME280;10604;51.976;7.594;2023-02-02T13:47:28;101524.31;;;7.27;98.62
20889;BME280;10604;51.976;7.594;2023-02-02T13:50:02;101528.69;;;7.25;98.38
20889;BME280;10604;51.976;7.594;2023-02-02T13:55:22;101526.09;;;7.22;98.70
20889;BME280;10604;51.976;7.594;2023-02-02T14:01:03;101517.34;;;7.23;98.29
20889;BME280;10604;51.976;7.594;2023-02-02T14:03:43;101516.47;;;7.24;97.89
20889;BME280;10604;51.976;7.594;2023-02-02T14:06:17;101519.94;;;7.28;97.82
20889;BME280;10604;51.976;7.594;2023-02-02T14:08:46;101522.56;;;7.26;97.89
20889;BME280;10604;51.976;7.594;2023-02-02T14:11:19;101524.34;;;7.24;97.99
20889;BME280;10604;51.976;7.594;2023-02-02T14:14:23;101522.59;;;7.23;98.15
20889;BME280;10604;51.976;7.594;2023-02-02T14:16:59;101524.34;;;7.18;98.31
20889;BME280;10604;51.976;7.594;2023-02-02T14:42:55;101540.09;;;7.24;99.15
20889;BME280;10604;51.976;7.594;2023-02-02T14:45:43;101541.84;;;7.22;99.85
20889;BME280;10604;51.976;7.594;2023-02-02T14:48:18;101543.56;;;7.25;99.66
20889;BME280;10604;51.976;7.594;2023-02-02T14:50:48;101545.31;;;7.30;100.00
20889;BME280;10604;51.976;7.594;2023-02-02T14:53:23;101551.44;;;7.29;99.70
20889;BME280;10604;51.976;7.594;2023-02-02T14:58:33;101548.81;;;7.29;100.00
20889;BME280;10604;51.976;7.594;2023-02-02T15:06:33;101548.44;;;7.99;100.00
20889;BME280;10604;51.976;7.594;2023-02-02T15:19:41;101550.72;;;8.52;100.00
20889;BME280;10604;51.976;7.594;2023-02-02T15:22:36;101565.63;;;8.52;100.00
20889;BME280;10604;51.976;7.594;2023-02-02T15:25:12;101557.56;;;8.67;100.00
20889;BME280;10604;51.976;7.594;2023-02-02T15:27:45;101562.81;;;8.73;100.00
20889;BME280;10604;51.976;7.594;2023-02-02T15:30:16;101575.09;;;8.71;100.00
20889;BME280;10604;51.976;7.594;2023-02-02T15:32:42;101574.16;;;8.75;100.00
20889;BME280;10604;51.976;7.594;2023-02-02T15:35:16;101568.03;;;8.76;100.00